Erzurum, Turkey
Current Conditions -  °F | °C
As of 12:50 PM on Sunday 21 Dec 2014 (Local Time) from LTCE Reporting Station
Broken Clouds Broken Clouds  
Wind Chill: 25°   Ceiling: 8000
Heat Index: 30°   Visibility: 6mi
Dew Point: 23°   Wind: 5mph
Humidity: 75%   Direction: 340°NNW
Pressure: 30.06"   Gusts: NA
Location:  39.91°N, 41.29°E
Report Text: LTCE 210950Z 34004KT 290V030 9999 SCT030 BKN080 M01/M05 Q1018 NOSIG
Loading
Personal Weather Stations






























Interactive Weather Map New forecast layout! Learn more

10-Day Weather Forecast

Advertisements
Track Severe Weather on mobile